Time;durP1;ratioP1;P1;durP2;ratioP2;P2;SDS_P1;SDS_P2;PMS_P1;PMS_P2;Temp;Humidity;BMP_temperature;BMP_pressure;BME280_temperature;BME280_humidity;BME280_pressure;Samples;Min_cycle;Max_cycle;Signal;HPM_P1;HPM_P2
2023/05/01 00:01:04;;;;;;;5.13;3.70;;;;;;;14.17;57.28;101643.50;5050977;28;20029;-62
2023/05/01 00:03:30;;;;;;;5.18;3.55;;;;;;;14.19;57.08;101638.53;5050873;28;20025;-62
2023/05/01 00:06:03;;;;;;;7.35;3.60;;;;;;;14.18;57.28;101638.78;5049996;28;20035;-62
2023/05/01 00:08:29;;;;;;;5.18;3.88;;;;;;;14.20;57.22;101620.66;5066087;28;20075;-62
2023/05/01 00:10:54;;;;;;;6.00;3.30;;;;;;;14.20;57.01;101626.25;5052225;28;20063;-62
2023/05/01 00:13:23;;;;;;;6.78;3.47;;;;;;;14.19;56.93;101623.72;5069110;28;20110;-62
2023/05/01 00:15:48;;;;;;;6.72;3.28;;;;;;;14.18;56.65;101616.44;5069714;28;20059;-63
2023/05/01 00:18:14;;;;;;;6.15;3.53;;;;;;;14.18;56.65;101617.28;5058373;28;20485;-62
2023/05/01 00:20:39;;;;;;;4.82;3.50;;;;;;;14.17;56.30;101610.00;5050177;28;20129;-62
2023/05/01 00:23:05;;;;;;;10.27;3.90;;;;;;;14.16;55.84;101608.34;5054328;28;20809;-62
2023/05/01 00:25:31;;;;;;;5.35;3.60;;;;;;;14.16;56.84;101602.75;5063824;28;20032;-62
2023/05/01 00:27:58;;;;;;;7.10;3.60;;;;;;;14.15;56.58;101605.81;5061504;28;20031;-62
2023/05/01 00:30:24;;;;;;;9.68;4.18;;;;;;;14.14;56.52;101601.31;5062690;28;20090;-62
2023/05/01 00:32:49;;;;;;;6.07;3.55;;;;;;;14.15;56.50;101606.66;5058392;28;20037;-62
2023/05/01 00:35:15;;;;;;;7.78;3.85;;;;;;;14.09;57.68;101595.66;5052366;28;20028;-63
2023/05/01 00:37:41;;;;;;;8.05;3.65;;;;;;;14.08;57.55;101599.56;5047181;28;20032;-62
2023/05/01 00:40:07;;;;;;;8.32;3.75;;;;;;;14.08;57.62;101600.41;5051086;28;20028;-62
2023/05/01 00:42:38;;;;;;;4.80;3.47;;;;;;;14.03;57.83;101596.69;5051253;28;20037;-62
2023/05/01 00:45:06;;;;;;;8.68;3.50;;;;;;;14.06;57.56;101593.38;5054698;28;20100;-62
2023/05/01 00:47:34;;;;;;;7.78;3.97;;;;;;;14.03;57.51;101593.88;5063405;28;20041;-62
2023/05/01 00:50:00;;;;;;;6.03;3.95;;;;;;;13.98;57.13;101586.28;5057538;28;20056;-62
2023/05/01 00:52:25;;;;;;;7.63;4.20;;;;;;;13.96;57.09;101578.19;5070679;28;20472;-62
2023/05/01 00:54:51;;;;;;;6.40;3.92;;;;;;;13.96;57.46;101577.34;5067874;28;20476;-62
2023/05/01 00:57:18;;;;;;;5.50;3.95;;;;;;;13.95;57.73;101572.84;5070493;28;20037;-62
2023/05/01 00:59:44;;;;;;;5.72;3.90;;;;;;;13.92;58.28;101574.22;5070460;28;20027;-63
2023/05/01 01:02:11;;;;;;;4.93;3.90;;;;;;;13.93;57.89;101569.50;5069731;28;20024;-62
2023/05/01 01:04:37;;;;;;;5.75;4.00;;;;;;;13.91;57.80;101569.75;5054539;28;20101;-62
2023/05/01 01:07:18;;;;;;;6.05;4.38;;;;;;;13.90;58.44;101570.00;5069764;28;20043;-62
2023/05/01 01:10:09;;;;;;;5.68;3.78;;;;;;;13.96;58.01;101561.44;5052551;28;20104;-62
2023/05/01 01:13:10;;;;;;;7.85;3.90;;;;;;;13.94;58.11;101558.06;5050029;28;20112;-62
2023/05/01 01:15:52;;;;;;;6.43;3.50;;;;;;;13.93;58.12;101556.38;5048588;28;20511;-62
2023/05/01 01:18:28;;;;;;;;;;;;;;;14.10;57.22;101539.56;5051020;28;20052;-62
2023/05/01 01:21:17;;;;;;;5.75;3.90;;;;;;;13.96;56.99;101549.44;5050369;28;19956;-62
2023/05/01 01:23:48;;;;;;;6.43;3.95;;;;;;;13.94;57.89;101546.91;5052289;28;20028;-62
2023/05/01 01:26:14;;;;;;;5.18;3.50;;;;;;;13.92;57.74;101531.53;5062727;28;20503;-63
2023/05/01 01:29:15;;;;;;;6.05;4.03;;;;;;;13.99;57.27;101546.16;5068405;28;20139;-63
2023/05/01 01:32:20;;;;;;;6.63;3.83;;;;;;;13.98;57.11;101527.69;5069241;28;20082;-63
2023/05/01 01:34:53;;;;;;;4.38;3.58;;;;;;;13.89;56.55;101524.50;5069976;28;20488;-63
2023/05/01 01:37:27;;;;;;;5.72;3.92;;;;;;;13.90;56.69;101526.19;5054727;28;20045;-63
2023/05/01 01:40:04;;;;;;;5.22;3.85;;;;;;;13.89;56.98;101518.94;5050031;28;20071;-62
2023/05/01 01:42:35;;;;;;;8.27;4.43;;;;;;;13.85;56.16;101514.97;5051279;28;20017;-62
2023/05/01 01:45:09;;;;;;;6.05;4.50;;;;;;;13.83;57.18;101508.78;5050629;28;20043;-63
2023/05/01 01:47:37;;;;;;;7.07;4.35;;;;;;;13.81;57.11;101505.44;5050253;28;20078;-62
2023/05/01 01:50:07;;;;;;;7.57;4.90;;;;;;;13.79;57.79;101502.03;5059103;28;20071;-62
2023/05/01 01:52:34;;;;;;;5.75;4.70;;;;;;;13.78;57.99;101497.56;5069516;28;20051;-63
2023/05/01 01:55:07;;;;;;;6.50;4.40;;;;;;;13.84;58.13;101504.06;5073574;28;20028;-63
2023/05/01 01:57:35;;;;;;;7.80;4.45;;;;;;;13.81;57.66;101497.06;5068989;28;20037;-62
2023/05/01 02:00:00;;;;;;;6.22;4.60;;;;;;;13.78;57.99;101494.78;5052773;28;20067;-63
2023/05/01 02:02:28;;;;;;;7.18;4.90;;;;;;;13.75;57.78;101492.50;5060336;28;20387;-63
2023/05/01 02:04:56;;;;;;;6.93;4.70;;;;;;;13.72;56.77;101495.84;5064870;28;20717;-63
2023/05/01 02:07:22;;;;;;;5.50;4.40;;;;;;;13.68;57.38;101497.44;5052864;28;20025;-63
2023/05/01 02:09:50;;;;;;;6.00;4.68;;;;;;;13.70;56.00;101486.88;5056225;28;20021;-63
2023/05/01 02:12:17;;;;;;;5.97;4.35;;;;;;;13.66;57.44;101491.28;5051977;28;20533;-64
2023/05/01 02:14:44;;;;;;;6.00;4.35;;;;;;;13.69;57.67;101485.19;5061721;28;20036;-63
2023/05/01 02:17:10;;;;;;;6.22;4.22;;;;;;;13.67;57.33;101484.59;5087255;28;20059;-63
2023/05/01 02:19:39;;;;;;;8.85;4.22;;;;;;;13.63;57.56;101486.19;5082029;28;20496;-63
2023/05/01 02:22:06;;;;;;;5.28;4.38;;;;;;;13.69;56.57;101477.66;5074325;28;22012;-63
2023/05/01 02:24:31;;;;;;;5.43;4.38;;;;;;;13.64;56.63;101474.81;5086310;28;20020;-63
2023/05/01 02:27:02;;;;;;;5.07;4.30;;;;;;;13.66;56.74;101480.13;5077862;28;20088;-63
2023/05/01 02:29:28;;;;;;;6.35;4.68;;;;;;;13.61;56.98;101472.53;5078299;28;20426;-64
2023/05/01 02:31:53;;;;;;;7.82;4.68;;;;;;;13.62;57.21;101465.84;5071925;28;20115;-65
2023/05/01 02:34:19;;;;;;;8.65;5.13;;;;;;;13.63;57.05;101463.88;5069984;28;20032;-64
2023/05/01 02:36:44;;;;;;;4.90;4.22;;;;;;;13.63;56.89;101466.69;5069968;28;20766;-63
2023/05/01 02:39:10;;;;;;;6.95;4.80;;;;;;;13.64;57.71;101463.66;5073652;28;20063;-63
2023/05/01 02:41:36;;;;;;;7.25;4.75;;;;;;;13.60;56.58;101458.84;5074056;28;20098;-63
2023/05/01 02:44:03;;;;;;;5.68;4.05;;;;;;;13.60;57.00;101456.06;5076101;28;20016;-63
2023/05/01 02:46:32;;;;;;;7.60;4.65;;;;;;;13.54;57.91;101452.34;5073918;28;20028;-63
2023/05/01 02:49:00;;;;;;;5.65;4.35;;;;;;;13.58;56.65;101449.88;5077805;28;20034;-63
2023/05/01 02:51:26;;;;;;;9.50;4.72;;;;;;;13.58;56.50;101447.09;5075666;28;20025;-63
2023/05/01 02:53:53;;;;;;;7.60;4.60;;;;;;;13.57;56.72;101440.69;5068013;28;20063;-62
2023/05/01 02:56:18;;;;;;;8.45;4.88;;;;;;;13.61;56.69;101444.63;5084431;28;20028;-62
2023/05/01 02:58:44;;;;;;;5.63;4.70;;;;;;;13.53;56.84;101438.66;5075021;28;20036;-63
2023/05/01 03:01:10;;;;;;;6.72;5.10;;;;;;;13.51;57.56;101436.97;5075970;28;20029;-62
2023/05/01 03:03:36;;;;;;;7.93;4.63;;;;;;;13.51;57.36;101427.75;5074503;28;20032;-62
2023/05/01 03:06:02;;;;;;;6.10;4.47;;;;;;;13.47;56.97;101427.41;5070906;28;20028;-63
2023/05/01 03:08:27;;;;;;;6.97;4.88;;;;;;;13.51;57.27;101433.31;5065864;28;20038;-63
2023/05/01 03:10:52;;;;;;;7.63;4.55;;;;;;;13.53;57.14;101424.72;5088665;28;20028;-62
2023/05/01 03:13:18;;;;;;;6.68;4.43;;;;;;;13.55;56.51;101425.28;5082144;28;20113;-62
2023/05/01 03:15:43;;;;;;;7.28;4.63;;;;;;;13.53;56.49;101417.19;5078573;28;20062;-62
2023/05/01 03:18:09;;;;;;;6.43;4.75;;;;;;;13.51;56.91;101422.19;5074552;28;20040;-64
2023/05/01 03:20:34;;;;;;;10.25;4.95;;;;;;;13.49;56.78;101425.22;5082606;28;20035;-62
2023/05/01 03:23:00;;;;;;;9.20;5.18;;;;;;;13.47;57.52;101413.47;5068870;28;20029;-62
2023/05/01 03:25:25;;;;;;;7.50;5.40;;;;;;;13.48;57.47;101406.81;5072334;28;20063;-62
2023/05/01 03:27:51;;;;;;;9.50;5.53;;;;;;;13.45;56.67;101400.91;5069551;28;20021;-62
2023/05/01 03:30:16;;;;;;;8.07;4.85;;;;;;;13.48;56.46;101403.19;5069028;28;20111;-62
2023/05/01 03:32:41;;;;;;;9.13;5.15;;;;;;;13.48;56.23;101401.25;5070650;28;20039;-62
2023/05/01 03:35:07;;;;;;;11.68;5.30;;;;;;;13.43;57.19;101392.78;5084133;28;20032;-62
2023/05/01 03:37:33;;;;;;;6.43;4.90;;;;;;;13.39;58.26;101400.00;5090951;28;20105;-62
2023/05/01 03:39:58;;;;;;;7.28;5.60;;;;;;;13.36;58.44;101397.75;5082916;28;20603;-64
2023/05/01 03:42:24;;;;;;;8.77;4.90;;;;;;;13.36;57.72;101400.53;5071288;28;20072;-62
2023/05/01 03:44:50;;;;;;;9.70;5.30;;;;;;;13.33;58.09;101397.41;5070886;28;20035;-62
2023/05/01 03:47:15;;;;;;;6.03;5.05;;;;;;;13.33;58.61;101398.25;5071051;28;20096;-62
2023/05/01 03:49:42;;;;;;;8.65;4.85;;;;;;;13.36;57.85;101396.88;5070408;28;20034;-62
2023/05/01 03:52:08;;;;;;;7.75;5.57;;;;;;;13.39;57.39;101393.56;5081398;28;20090;-62
2023/05/01 03:54:33;;;;;;;8.15;5.38;;;;;;;13.31;57.18;101388.44;5085849;28;20028;-63
2023/05/01 03:56:59;;;;;;;7.80;5.32;;;;;;;13.31;57.84;101386.50;5083916;28;20037;-62
2023/05/01 03:59:25;;;;;;;9.00;5.47;;;;;;;13.34;58.03;101383.19;5070406;28;20104;-63
2023/05/01 04:01:51;;;;;;;10.50;5.47;;;;;;;13.27;58.02;101377.81;5070761;28;20033;-63
2023/05/01 04:04:17;;;;;;;7.45;5.53;;;;;;;13.27;58.02;101391.75;5070069;28;20078;-63
2023/05/01 04:06:42;;;;;;;8.52;5.63;;;;;;;13.20;57.71;101377.16;5070501;28;20050;-63
2023/05/01 04:09:07;;;;;;;7.45;5.65;;;;;;;13.21;58.52;101384.41;5069427;28;20039;-63
2023/05/01 04:11:33;;;;;;;7.93;6.07;;;;;;;13.23;57.84;101379.44;5069484;28;20086;-63
2023/05/01 04:13:58;;;;;;;8.30;6.22;;;;;;;13.22;58.49;101385.25;5077525;28;20024;-63
2023/05/01 04:16:23;;;;;;;8.73;5.82;;;;;;;13.20;58.14;101376.28;5090439;28;20067;-63
2023/05/01 04:18:49;;;;;;;8.55;5.80;;;;;;;13.21;57.99;101376.03;5089970;28;20028;-63
2023/05/01 04:21:16;;;;;;;7.68;6.25;;;;;;;13.21;58.35;101378.00;5089910;28;20042;-63
2023/05/01 04:23:41;;;;;;;12.50;6.18;;;;;;;13.22;57.77;101385.25;5076609;28;20497;-63
2023/05/01 04:26:07;;;;;;;8.68;5.88;;;;;;;13.21;57.99;101383.56;5081287;28;20029;-62
2023/05/01 04:28:32;;;;;;;7.43;5.63;;;;;;;13.20;58.00;101388.28;5069814;28;20112;-62
2023/05/01 04:30:58;;;;;;;9.07;5.63;;;;;;;13.16;57.57;101398.25;5072663;28;20040;-62
2023/05/01 04:33:23;;;;;;;8.40;5.95;;;;;;;13.15;58.16;101395.72;5073258;28;20036;-62
2023/05/01 04:35:48;;;;;;;8.23;6.45;;;;;;;13.17;58.00;101385.19;5087243;28;20024;-62
2023/05/01 04:38:14;;;;;;;8.20;6.13;;;;;;;13.16;58.40;101391.81;5085249;28;20025;-62
2023/05/01 04:40:39;;;;;;;12.15;6.22;;;;;;;13.14;57.99;101389.31;5081596;28;20020;-62
2023/05/01 04:43:05;;;;;;;8.60;5.70;;;;;;;13.17;58.71;101387.97;5083162;28;20044;-62
2023/05/01 04:45:31;;;;;;;9.52;5.72;;;;;;;13.14;59.26;101382.91;5089096;28;20016;-62
2023/05/01 04:47:56;;;;;;;7.05;5.90;;;;;;;13.13;59.19;101378.44;5073004;28;20040;-62
2023/05/01 04:50:21;;;;;;;7.32;5.60;;;;;;;13.13;58.65;101384.00;5070231;28;20030;-62
2023/05/01 04:52:47;;;;;;;9.27;6.43;;;;;;;13.11;58.89;101377.84;5070496;28;20021;-63
2023/05/01 04:55:12;;;;;;;11.80;6.05;;;;;;;13.10;59.50;101382.56;5069390;28;20023;-62
2023/05/01 04:57:37;;;;;;;8.50;5.60;;;;;;;13.12;58.11;101372.00;5069997;28;20033;-62
2023/05/01 05:00:03;;;;;;;9.15;6.10;;;;;;;13.10;58.70;101378.94;5070185;28;20032;-62
2023/05/01 05:02:29;;;;;;;8.50;6.15;;;;;;;13.13;58.80;101381.22;5077522;28;20056;-63
2023/05/01 05:04:57;;;;;;;10.52;6.40;;;;;;;13.12;58.60;101379.50;5080473;28;21072;-62
2023/05/01 05:07:23;;;;;;;9.60;6.38;;;;;;;13.10;58.98;101373.38;5071650;28;20429;-63
2023/05/01 05:09:48;;;;;;;10.70;6.38;;;;;;;13.12;59.01;101379.50;5082797;28;20028;-62
2023/05/01 05:12:13;;;;;;;10.25;6.45;;;;;;;13.14;57.90;101377.31;5077036;28;20032;-63
2023/05/01 05:14:40;;;;;;;12.13;6.82;;;;;;;13.15;58.68;101376.22;5069712;28;20035;-63
2023/05/01 05:17:05;;;;;;;9.15;6.28;;;;;;;13.13;58.95;101372.84;5053509;28;20092;-62
2023/05/01 05:19:31;;;;;;;10.60;6.10;;;;;;;13.17;58.26;101376.81;5054274;28;20056;-62
2023/05/01 05:21:56;;;;;;;10.10;6.22;;;;;;;13.18;58.59;101378.50;5055431;28;20473;-62
2023/05/01 05:24:21;;;;;;;13.52;6.70;;;;;;;13.18;58.10;101384.06;5058266;28;20060;-62
2023/05/01 05:26:46;;;;;;;12.38;6.75;;;;;;;13.17;59.19;101376.81;5067017;28;20032;-63
2023/05/01 05:29:12;;;;;;;9.65;6.25;;;;;;;13.17;58.31;101371.25;5061791;28;20030;-62
2023/05/01 05:31:37;;;;;;;10.95;6.88;;;;;;;13.16;58.78;101381.53;5063524;28;20445;-62
2023/05/01 05:34:03;;;;;;;9.57;6.20;;;;;;;13.16;58.42;101372.31;5062358;28;20047;-62
2023/05/01 05:36:28;;;;;;;12.35;6.68;;;;;;;13.18;58.57;101370.97;5062116;28;20067;-62
2023/05/01 05:38:54;;;;;;;10.48;6.90;;;;;;;13.15;58.41;101376.22;5058193;28;20024;-62
2023/05/01 05:41:20;;;;;;;15.98;7.13;;;;;;;13.18;58.68;101364.56;5059753;28;20031;-61
2023/05/01 05:43:45;;;;;;;10.38;6.68;;;;;;;13.22;58.80;101374.09;5062152;28;20510;-62
2023/05/01 05:46:11;;;;;;;10.13;6.93;;;;;;;13.22;58.38;101372.13;5062055;28;20105;-62
2023/05/01 05:48:36;;;;;;;12.82;7.30;;;;;;;13.29;58.45;101380.34;5061250;28;20093;-62
2023/05/01 05:51:01;;;;;;;8.82;6.72;;;;;;;13.28;58.55;101378.66;5064983;28;20062;-61
2023/05/01 05:53:27;;;;;;;9.15;6.95;;;;;;;13.31;58.67;101368.94;5065858;28;20024;-62
2023/05/01 05:55:52;;;;;;;12.27;7.60;;;;;;;13.29;58.67;101369.19;5062253;28;20043;-62
2023/05/01 05:58:21;;;;;;;8.65;7.00;;;;;;;13.29;58.26;101369.19;5061353;28;20029;-62
2023/05/01 06:00:47;;;;;;;10.63;7.55;;;;;;;13.31;58.29;101366.16;5058337;28;20055;-62
2023/05/01 06:03:13;;;;;;;12.13;7.88;;;;;;;13.32;58.82;101374.25;5062346;28;20422;-62
2023/05/01 06:05:39;;;;;;;13.63;8.18;;;;;;;13.28;59.24;101367.50;5060712;28;20059;-62
2023/05/01 06:08:04;;;;;;;11.93;7.85;;;;;;;13.27;59.24;101374.19;5063416;28;20452;-62
2023/05/01 06:10:30;;;;;;;12.85;7.53;;;;;;;13.29;58.82;101374.78;5061846;28;20032;-62
2023/05/01 06:12:55;;;;;;;11.77;7.63;;;;;;;13.32;58.66;101367.81;5056769;28;20443;-62
2023/05/01 06:15:20;;;;;;;10.55;8.02;;;;;;;13.28;58.99;101364.72;5055614;28;20041;-62
2023/05/01 06:17:46;;;;;;;11.10;7.80;;;;;;;13.31;58.25;101364.19;5061529;28;20040;-62
2023/05/01 06:20:12;;;;;;;9.10;7.97;;;;;;;13.37;58.24;101371.53;5062662;28;20639;-62
2023/05/01 06:22:38;;;;;;;13.15;8.27;;;;;;;13.38;57.92;101372.38;5065448;28;20068;-62
2023/05/01 06:25:05;;;;;;;13.45;7.82;;;;;;;13.34;58.08;101369.25;5064313;28;20059;-62
2023/05/01 06:27:30;;;;;;;10.68;8.27;;;;;;;13.40;57.87;101371.03;5055015;28;20033;-62
2023/05/01 06:29:55;;;;;;;11.38;8.55;;;;;;;13.39;58.12;101366.53;5056401;28;20024;-62
2023/05/01 06:32:22;;;;;;;12.02;8.20;;;;;;;13.38;58.39;101369.59;5055029;28;20020;-62
2023/05/01 06:34:47;;;;;;;11.65;8.05;;;;;;;13.40;58.17;101367.38;5060802;28;20037;-62
2023/05/01 06:37:12;;;;;;;9.77;7.82;;;;;;;13.44;58.83;101366.63;5062172;28;20044;-63
2023/05/01 06:39:38;;;;;;;13.98;8.73;;;;;;;13.49;58.21;101365.81;5059166;28;20120;-62
2023/05/01 06:42:03;;;;;;;13.90;8.60;;;;;;;13.50;58.64;101359.13;5059937;28;20081;-62
2023/05/01 06:44:28;;;;;;;10.88;8.68;;;;;;;13.49;58.70;101357.47;5056316;28;20377;-63
2023/05/01 06:46:55;;;;;;;11.38;8.55;;;;;;;13.55;58.89;101361.16;5066566;28;20068;-62
2023/05/01 06:49:20;;;;;;;11.60;9.10;;;;;;;13.54;59.08;101351.09;5060043;28;20108;-62
2023/05/01 06:51:46;;;;;;;14.82;9.05;;;;;;;13.56;59.30;101354.44;5053228;28;20119;-61
2023/05/01 06:54:11;;;;;;;9.73;8.20;;;;;;;13.66;61.81;101363.78;5051646;28;20081;-62
2023/05/01 06:56:36;;;;;;;14.15;7.78;;;;;;;14.07;67.06;101352.22;5066271;28;20032;-62
2023/05/01 06:59:02;;;;;;;12.27;8.27;;;;;;;14.31;64.49;101353.56;5060083;28;20028;-63
2023/05/01 07:01:28;;;;;;;14.90;9.02;;;;;;;14.21;59.12;101354.31;5046474;28;20433;-63
2023/05/01 07:03:54;;;;;;;11.50;9.07;;;;;;;14.16;58.73;101359.03;5049714;28;20079;-63
2023/05/01 07:06:19;;;;;;;15.82;9.00;;;;;;;14.09;58.92;101358.38;5046028;28;20544;-62
2023/05/01 07:08:44;;;;;;;11.93;9.20;;;;;;;14.06;59.08;101356.13;5047155;28;20033;-61
2023/05/01 07:11:10;;;;;;;12.43;9.10;;;;;;;14.00;59.12;101353.28;5050070;28;20044;-61
2023/05/01 07:13:36;;;;;;;13.55;8.50;;;;;;;14.03;59.35;101346.34;5054926;28;20035;-63
2023/05/01 07:16:02;;;;;;;13.02;8.80;;;;;;;14.02;59.48;101349.38;5057769;28;20487;-62
2023/05/01 07:18:27;;;;;;;15.98;9.25;;;;;;;14.04;59.13;101352.75;5073688;28;20028;-61
2023/05/01 07:20:52;;;;;;;12.23;9.02;;;;;;;14.04;59.11;101349.97;5068743;28;20032;-62
2023/05/01 07:23:18;;;;;;;13.75;9.05;;;;;;;14.05;59.28;101352.50;5073365;28;20042;-63
2023/05/01 07:25:44;;;;;;;12.50;9.45;;;;;;;14.07;59.04;101355.00;5077276;28;20025;-63
2023/05/01 07:28:10;;;;;;;12.00;9.05;;;;;;;14.11;59.42;101356.16;5076168;28;20035;-64
2023/05/01 07:30:36;;;;;;;12.85;9.25;;;;;;;14.15;59.38;101357.34;5079457;28;20028;-64
2023/05/01 07:33:01;;;;;;;13.63;8.82;;;;;;;14.19;58.62;101364.09;5076506;28;20463;-63
2023/05/01 07:35:27;;;;;;;13.10;8.95;;;;;;;14.25;58.83;101361.03;5069537;28;20075;-64
2023/05/01 07:37:52;;;;;;;13.68;9.38;;;;;;;14.31;59.02;101358.31;5078054;28;20082;-63
2023/05/01 07:40:18;;;;;;;14.63;9.35;;;;;;;14.36;59.17;101362.00;5080559;28;20029;-65
2023/05/01 07:42:43;;;;;;;13.13;8.93;;;;;;;14.40;58.31;101360.34;5078891;28;20052;-62
2023/05/01 07:45:09;;;;;;;12.68;9.65;;;;;;;14.47;58.73;101360.13;5071714;28;20025;-63
2023/05/01 07:47:35;;;;;;;17.27;9.38;;;;;;;14.51;57.95;101360.47;5071485;28;20028;-62
2023/05/01 07:50:00;;;;;;;11.88;9.20;;;;;;;14.57;58.35;101364.97;5077405;28;20028;-63
2023/05/01 07:52:26;;;;;;;12.80;8.93;;;;;;;14.68;58.46;101361.16;5076221;28;20036;-63
2023/05/01 07:54:51;;;;;;;11.30;9.38;;;;;;;14.76;58.46;101363.44;5077302;28;20506;-59
2023/05/01 07:57:17;;;;;;;12.60;10.43;;;;;;;14.85;57.72;101361.81;5067679;28;20044;-63
2023/05/01 07:59:42;;;;;;;11.15;8.48;;;;;;;15.03;57.92;101362.50;5074008;28;20076;-59
2023/05/01 08:02:07;;;;;;;12.15;9.15;;;;;;;15.17;57.92;101358.13;5073420;28;20052;-60
2023/05/01 08:04:32;;;;;;;15.30;9.68;;;;;;;15.31;58.13;101358.47;5073846;28;20468;-61
2023/05/01 08:06:58;;;;;;;13.25;9.02;;;;;;;15.40;57.12;101356.81;5079980;28;20124;-66
2023/05/01 08:09:23;;;;;;;13.75;8.77;;;;;;;15.53;57.66;101355.47;5074553;28;20037;-62
2023/05/01 08:11:48;;;;;;;14.75;9.75;;;;;;;15.65;57.13;101347.72;5080669;28;20012;-61
2023/05/01 08:14:17;;;;;;;14.07;9.13;;;;;;;15.73;55.95;101347.19;5069334;28;20036;-62
2023/05/01 08:16:45;;;;;;;13.13;9.60;;;;;;;15.83;55.31;101341.59;5080618;28;20491;-64
2023/05/01 08:19:10;;;;;;;16.02;9.23;;;;;;;15.93;55.25;101347.22;5071334;28;20052;-63
2023/05/01 08:21:35;;;;;;;11.63;9.13;;;;;;;16.04;55.69;101350.06;5070574;28;20027;-61
2023/05/01 08:24:00;;;;;;;11.80;9.15;;;;;;;16.12;55.28;101343.91;5072485;28;20507;-60
2023/05/01 08:26:26;;;;;;;13.00;9.18;;;;;;;16.23;55.67;101348.41;5070489;28;20047;-60
2023/05/01 08:28:51;;;;;;;12.52;9.18;;;;;;;16.36;55.28;101342.22;5068743;28;20040;-60
2023/05/01 08:31:18;;;;;;;14.93;9.23;;;;;;;16.48;55.47;101341.94;5078690;28;20097;-62
2023/05/01 08:33:43;;;;;;;15.73;9.57;;;;;;;16.58;54.65;101343.88;5071784;28;20028;-61
2023/05/01 08:36:10;;;;;;;13.82;8.52;;;;;;;16.67;54.27;101345.03;5077493;28;20484;-60
2023/05/01 08:38:36;;;;;;;9.90;8.13;;;;;;;16.68;53.06;101341.09;5079804;28;20016;-62
2023/05/01 08:41:02;;;;;;;12.02;8.02;;;;;;;16.73;53.51;101346.72;5078726;28;20059;-60
2023/05/01 08:43:30;;;;;;;9.85;8.73;;;;;;;16.75;53.88;101349.25;5075856;28;20434;-60
2023/05/01 08:45:58;;;;;;;9.98;7.55;;;;;;;16.77;52.99;101347.00;5072479;28;20028;-61
2023/05/01 08:48:25;;;;;;;13.00;8.38;;;;;;;16.80;53.13;101352.03;5066130;28;20024;-61
2023/05/01 08:50:54;;;;;;;14.52;8.70;;;;;;;16.73;52.54;101346.72;5083249;28;20096;-61
2023/05/01 08:53:21;;;;;;;12.73;8.10;;;;;;;16.68;52.52;101344.72;5089965;28;20027;-61
2023/05/01 08:55:47;;;;;;;15.00;8.95;;;;;;;16.69;53.08;101342.75;5090627;28;20048;-61
2023/05/01 08:58:14;;;;;;;12.93;8.80;;;;;;;16.70;53.79;101350.03;5090285;28;20036;-60
2023/05/01 09:00:41;;;;;;;12.60;8.95;;;;;;;16.73;53.95;101351.44;5073136;28;20029;-60
2023/05/01 09:03:10;;;;;;;15.18;8.88;;;;;;;16.73;53.52;101343.91;5073607;28;20448;-60
2023/05/01 09:05:35;;;;;;;11.50;8.38;;;;;;;16.72;54.14;101352.56;5076639;28;20028;-60
2023/05/01 09:08:01;;;;;;;10.82;8.75;;;;;;;16.73;54.43;101349.50;5079666;28;20048;-60
2023/05/01 09:10:26;;;;;;;10.73;8.88;;;;;;;16.75;54.01;101352.88;5074416;28;20531;-60
2023/05/01 09:12:59;;;;;;;12.48;8.35;;;;;;;16.79;53.86;101356.81;5074322;28;20466;-60
2023/05/01 09:15:26;;;;;;;12.73;8.35;;;;;;;16.81;54.03;101354.53;5073549;28;20398;-61
2023/05/01 09:17:52;;;;;;;10.30;8.45;;;;;;;16.89;54.38;101353.97;5074058;28;20547;-60
2023/05/01 09:20:18;;;;;;;12.63;9.43;;;;;;;16.91;53.55;101348.94;5074429;28;20036;-60
2023/05/01 09:22:43;;;;;;;12.60;8.88;;;;;;;16.93;53.22;101355.06;5073385;28;20551;-60
2023/05/01 09:25:12;;;;;;;16.80;8.35;;;;;;;16.97;53.36;101351.72;5083766;28;20036;-60
2023/05/01 09:27:37;;;;;;;11.20;8.35;;;;;;;17.00;52.77;101349.19;5094898;28;20042;-60
2023/05/01 09:30:05;;;;;;;10.95;8.40;;;;;;;17.02;52.30;101343.31;5094112;28;20032;-60
2023/05/01 09:32:30;;;;;;;11.13;8.45;;;;;;;17.02;52.31;101346.94;5094666;28;20032;-61
2023/05/01 09:35:13;;;;;;;9.85;7.88;;;;;;;17.05;52.24;101349.16;5093766;28;20026;-60
2023/05/01 09:37:39;;;;;;;;;;;;;;;17.14;53.41;101350.28;5095072;28;20035;-60
2023/05/01 09:40:11;;;;;;;11.60;8.13;;;;;;;17.18;51.83;101353.34;5087442;28;20007;-60
2023/05/01 09:42:47;;;;;;;9.73;8.35;;;;;;;17.27;52.03;101351.63;5073472;28;20021;-60
2023/05/01 09:45:14;;;;;;;12.57;8.45;;;;;;;17.36;51.23;101354.69;5073655;28;20403;-61
2023/05/01 09:47:43;;;;;;;12.80;8.75;;;;;;;17.40;51.60;101348.19;5073882;28;20035;-60
2023/05/01 09:50:11;;;;;;;12.82;8.90;;;;;;;17.45;50.30;101349.31;5073260;28;20021;-60
2023/05/01 09:52:36;;;;;;;11.10;8.30;;;;;;;17.59;51.17;101353.19;5073801;28;20023;-60
2023/05/01 09:55:15;;;;;;;9.52;8.10;;;;;;;17.66;50.95;101348.09;5073585;28;20803;-60
2023/05/01 09:57:42;;;;;;;12.27;9.27;;;;;;;17.63;49.49;101354.28;5072037;28;20115;-61
2023/05/01 10:00:09;;;;;;;9.85;8.23;;;;;;;17.66;49.69;101359.31;5090914;28;20419;-60
2023/05/01 10:02:35;;;;;;;10.70;8.20;;;;;;;17.66;49.47;101350.91;5093591;28;20028;-60
2023/05/01 10:05:00;;;;;;;11.52;8.63;;;;;;;17.66;49.78;101357.34;5092874;28;20079;-60
2023/05/01 10:07:26;;;;;;;10.82;8.32;;;;;;;17.59;49.21;101356.00;5093672;28;20028;-60
2023/05/01 10:09:52;;;;;;;17.98;8.98;;;;;;;17.57;50.09;101352.66;5093075;28;20468;-60
2023/05/01 10:12:28;;;;;;;11.77;8.10;;;;;;;17.60;50.83;101352.88;5093616;28;20051;-61
2023/05/01 10:14:56;;;;;;;9.50;8.52;;;;;;;17.59;50.36;101350.38;5093240;28;20028;-60
2023/05/01 10:17:22;;;;;;;10.27;8.80;;;;;;;17.63;50.38;101357.09;5066708;28;20080;-60
2023/05/01 10:19:48;;;;;;;12.27;8.65;;;;;;;17.63;50.43;101351.47;5073278;28;20056;-60
2023/05/01 10:22:15;;;;;;;12.68;9.40;;;;;;;17.60;51.40;101358.50;5072965;28;20085;-60
2023/05/01 10:24:42;;;;;;;14.35;9.00;;;;;;;17.64;51.42;101359.63;5072267;28;20036;-60
2023/05/01 10:27:07;;;;;;;11.15;8.57;;;;;;;17.65;51.64;101358.50;5072779;28;20035;-60
2023/05/01 10:29:36;;;;;;;12.43;9.65;;;;;;;17.64;51.97;101361.56;5072807;28;20025;-60
2023/05/01 10:32:05;;;;;;;12.70;9.73;;;;;;;17.66;51.95;101364.94;5072032;28;20028;-60
2023/05/01 10:34:37;;;;;;;16.60;9.70;;;;;;;17.64;51.82;101362.44;5069365;28;20067;-60
2023/05/01 10:37:11;;;;;;;10.25;8.75;;;;;;;17.71;52.29;101372.50;5072865;28;20036;-60
2023/05/01 10:39:37;;;;;;;12.45;8.70;;;;;;;17.73;51.75;101364.63;5071781;28;20043;-59
2023/05/01 10:42:16;;;;;;;11.38;8.63;;;;;;;17.72;51.62;101360.13;5072445;28;20472;-60
2023/05/01 10:44:42;;;;;;;13.02;8.82;;;;;;;17.71;51.52;101364.91;5072408;28;20429;-60
2023/05/01 10:47:23;;;;;;;11.52;9.30;;;;;;;17.70;52.06;101365.22;5071799;28;20115;-60
2023/05/01 10:50:03;;;;;;;13.38;8.73;;;;;;;17.73;51.78;101373.06;5072423;28;20086;-60
2023/05/01 10:52:32;;;;;;;10.43;8.32;;;;;;;17.73;51.34;101373.91;5064932;28;20028;-60
2023/05/01 10:55:32;;;;;;;11.50;8.25;;;;;;;17.75;51.54;101374.47;5072381;28;20055;-60
2023/05/01 10:57:58;;;;;;;14.23;9.18;;;;;;;17.87;52.43;101382.53;5051953;28;20064;-60
2023/05/01 11:00:23;;;;;;;13.40;8.65;;;;;;;17.95;51.70;101375.47;5051618;28;20063;-60
2023/05/01 11:02:49;;;;;;;10.23;8.13;;;;;;;17.97;50.96;101370.44;5052287;28;20029;-60
2023/05/01 11:05:14;;;;;;;14.05;9.00;;;;;;;18.01;50.01;101372.34;5052333;28;20082;-60
2023/05/01 11:07:39;;;;;;;11.88;8.93;;;;;;;18.06;50.57;101366.69;5051510;28;20948;-60
2023/05/01 11:10:24;;;;;;;10.38;8.65;;;;;;;18.10;51.05;101372.56;5066386;28;20033;-60
2023/05/01 11:12:51;;;;;;;10.32;8.93;;;;;;;18.11;50.01;101369.47;5069286;28;20082;-60
2023/05/01 11:15:29;;;;;;;9.88;8.55;;;;;;;18.13;50.62;101372.00;5056879;28;20033;-60
2023/05/01 11:17:55;;;;;;;12.13;8.73;;;;;;;18.17;50.09;101367.47;5071884;28;20068;-60
2023/05/01 11:20:23;;;;;;;10.80;9.25;;;;;;;18.17;50.20;101366.66;5071380;28;20421;-60
2023/05/01 11:22:51;;;;;;;11.50;8.77;;;;;;;18.19;49.84;101370.81;5071125;28;20025;-60